Impacts METAR Board INFO
IDs:

KFLL - Ft Lauderdale-Hollyw, FL, US

Updated at: 0520 UTC 19 Jan 2018
Potential Impact None Slight Moderate High
Time18/17Z 18/18Z 18/19Z 18/20Z 18/21Z 18/22Z 18/23Z 19/00Z 19/01Z 19/02Z 19/03Z 19/04Z 19/05Z
VIS10 10 10 10 10 10 10 10 10 10 10 10 10
CIG-- -- -- -- 250 250 250 250 -- 250 250 250 250
CoverSCTSCTSCTSCTBKNBKNBKNBKNSCTBKNBKNBKNBKN
FltCatVFRVFRVFRVFRVFRVFRVFRVFRVFRVFRVFRVFRVFR
WX--------------------------
WDir3503503301036010350340350350350340340
WSpd9 9 9 8 9 7 6 7 8 7 8 8 7
WGst-- -- -- 18 -- -- -- -- -- -- -- -- --
Raw hourly METARs
KFLL 181653Z 35009KT 10SM FEW035 SCT250 13/07 A3030 RMK AO2 SLP258 T01280067
KFLL 181753Z 35009KT 10SM FEW035 SCT250 14/07 A3027 RMK AO2 SLP248 T01440072 10144 20050 58018
KFLL 181853Z 33009KT 10SM FEW035 SCT250 16/08 A3024 RMK AO2 SLP240 T01560083
KFLL 181953Z 01008G18KT 10SM FEW040 SCT250 16/09 A3023 RMK AO2 SLP235 T01610089
KFLL 182053Z 36009KT 10SM FEW040 BKN250 17/09 A3022 RMK AO2 SLP233 T01670094 56015
KFLL 182153Z 01007KT 10SM FEW040 BKN250 15/09 A3022 RMK AO2 SLP233 T01500094
KFLL 182253Z 35006KT 10SM FEW038 SCT180 BKN250 13/09 A3022 RMK AO2 SLP233 T01330094
KFLL 182353Z 34007KT 10SM FEW037 FEW180 BKN250 13/09 A3024 RMK AO2 SLP239 T01280089 10167 20128 53006
KFLL 190053Z 35008KT 10SM FEW035 SCT250 12/09 A3026 RMK AO2 SLP247 T01220089
KFLL 190153Z 35007KT 10SM BKN250 11/08 A3028 RMK AO2 SLP253 T01110083
KFLL 190253Z 35008KT 10SM BKN250 11/08 A3029 RMK AO2 SLP257 T01060083 51018
KFLL 190353Z 34008KT 10SM SCT190 BKN250 10/08 A3029 RMK AO2 SLP256 T01000078
KFLL 190453Z 34007KT 10SM SCT180 BKN250 09/08 A3028 RMK AO2 SLP252 T00940078 401670050